sensor_id;sensor_type;location;lat;lon;timestamp;P1;durP1;ratioP1;P2;durP2;ratioP2
21305;SDS011;10812;51.838;5.838;2023-08-17T00:01:51;3.42;;;1.60;;
21305;SDS011;10812;51.838;5.838;2023-08-17T00:04:19;4.78;;;2.35;;
21305;SDS011;10812;51.838;5.838;2023-08-17T00:06:47;3.50;;;2.10;;
21305;SDS011;10812;51.838;5.838;2023-08-17T00:09:15;3.13;;;2.05;;
21305;SDS011;10812;51.838;5.838;2023-08-17T00:11:44;2.30;;;1.58;;
21305;SDS011;10812;51.838;5.838;2023-08-17T00:14:12;2.17;;;1.67;;
21305;SDS011;10812;51.838;5.838;2023-08-17T00:16:40;3.83;;;2.10;;
21305;SDS011;10812;51.838;5.838;2023-08-17T00:19:09;3.47;;;2.10;;
21305;SDS011;10812;51.838;5.838;2023-08-17T00:21:37;3.15;;;1.85;;
21305;SDS011;10812;51.838;5.838;2023-08-17T00:24:05;4.43;;;2.00;;
21305;SDS011;10812;51.838;5.838;2023-08-17T00:26:34;3.00;;;1.90;;
21305;SDS011;10812;51.838;5.838;2023-08-17T00:29:02;2.75;;;1.60;;
21305;SDS011;10812;51.838;5.838;2023-08-17T00:31:30;5.78;;;2.00;;
21305;SDS011;10812;51.838;5.838;2023-08-17T00:33:58;3.67;;;2.03;;
21305;SDS011;10812;51.838;5.838;2023-08-17T00:36:27;3.65;;;2.00;;
21305;SDS011;10812;51.838;5.838;2023-08-17T00:38:55;5.32;;;2.13;;
21305;SDS011;10812;51.838;5.838;2023-08-17T00:41:23;5.30;;;1.80;;
21305;SDS011;10812;51.838;5.838;2023-08-17T00:43:51;4.82;;;2.05;;
21305;SDS011;10812;51.838;5.838;2023-08-17T00:46:19;3.95;;;1.83;;
21305;SDS011;10812;51.838;5.838;2023-08-17T00:48:49;5.20;;;2.10;;
21305;SDS011;10812;51.838;5.838;2023-08-17T00:51:17;4.00;;;1.92;;
21305;SDS011;10812;51.838;5.838;2023-08-17T00:53:48;3.15;;;1.70;;
21305;SDS011;10812;51.838;5.838;2023-08-17T00:56:17;2.42;;;1.63;;
21305;SDS011;10812;51.838;5.838;2023-08-17T00:58:45;2.22;;;1.80;;
21305;SDS011;10812;51.838;5.838;2023-08-17T01:01:14;2.83;;;2.22;;
21305;SDS011;10812;51.838;5.838;2023-08-17T01:03:42;2.88;;;1.95;;
21305;SDS011;10812;51.838;5.838;2023-08-17T01:06:10;5.63;;;1.98;;
21305;SDS011;10812;51.838;5.838;2023-08-17T01:08:38;2.28;;;1.65;;
21305;SDS011;10812;51.838;5.838;2023-08-17T01:11:11;4.55;;;1.60;;
21305;SDS011;10812;51.838;5.838;2023-08-17T01:13:47;4.60;;;2.05;;
21305;SDS011;10812;51.838;5.838;2023-08-17T01:23:57;4.95;;;2.45;;
21305;SDS011;10812;51.838;5.838;2023-08-17T01:26:25;4.38;;;2.00;;
21305;SDS011;10812;51.838;5.838;2023-08-17T01:28:53;3.63;;;1.73;;
21305;SDS011;10812;51.838;5.838;2023-08-17T01:31:23;4.43;;;1.88;;
21305;SDS011;10812;51.838;5.838;2023-08-17T01:33:58;4.88;;;2.17;;
21305;SDS011;10812;51.838;5.838;2023-08-17T01:36:32;2.72;;;1.67;;
21305;SDS011;10812;51.838;5.838;2023-08-17T01:39:05;3.03;;;1.75;;
21305;SDS011;10812;51.838;5.838;2023-08-17T01:41:35;4.47;;;2.00;;
21305;SDS011;10812;51.838;5.838;2023-08-17T01:44:05;2.60;;;2.00;;
21305;SDS011;10812;51.838;5.838;2023-08-17T01:46:33;5.30;;;1.88;;
21305;SDS011;10812;51.838;5.838;2023-08-17T01:49:01;4.47;;;1.90;;
21305;SDS011;10812;51.838;5.838;2023-08-17T01:51:30;4.03;;;1.77;;
21305;SDS011;10812;51.838;5.838;2023-08-17T01:53:58;3.63;;;1.80;;
21305;SDS011;10812;51.838;5.838;2023-08-17T01:56:27;2.67;;;1.70;;
21305;SDS011;10812;51.838;5.838;2023-08-17T01:58:55;3.03;;;1.90;;
21305;SDS011;10812;51.838;5.838;2023-08-17T02:01:23;3.35;;;2.13;;
21305;SDS011;10812;51.838;5.838;2023-08-17T02:03:52;4.07;;;2.25;;
21305;SDS011;10812;51.838;5.838;2023-08-17T02:06:20;5.35;;;2.17;;
21305;SDS011;10812;51.838;5.838;2023-08-17T02:08:48;2.65;;;1.60;;
21305;SDS011;10812;51.838;5.838;2023-08-17T02:11:16;2.22;;;1.83;;
21305;SDS011;10812;51.838;5.838;2023-08-17T02:13:45;4.45;;;1.92;;
21305;SDS011;10812;51.838;5.838;2023-08-17T02:16:13;4.47;;;1.77;;
21305;SDS011;10812;51.838;5.838;2023-08-17T02:18:41;4.95;;;1.90;;
21305;SDS011;10812;51.838;5.838;2023-08-17T02:21:09;3.55;;;1.92;;
21305;SDS011;10812;51.838;5.838;2023-08-17T02:23:37;3.80;;;1.40;;
21305;SDS011;10812;51.838;5.838;2023-08-17T02:26:05;4.72;;;2.08;;
21305;SDS011;10812;51.838;5.838;2023-08-17T02:28:33;5.82;;;2.05;;
21305;SDS011;10812;51.838;5.838;2023-08-17T02:31:03;2.15;;;1.55;;
21305;SDS011;10812;51.838;5.838;2023-08-17T02:33:32;3.33;;;1.85;;
21305;SDS011;10812;51.838;5.838;2023-08-17T02:36:03;3.72;;;1.80;;
21305;SDS011;10812;51.838;5.838;2023-08-17T02:38:31;3.80;;;1.95;;
21305;SDS011;10812;51.838;5.838;2023-08-17T02:40:59;3.70;;;1.85;;
21305;SDS011;10812;51.838;5.838;2023-08-17T02:43:27;3.78;;;2.30;;
21305;SDS011;10812;51.838;5.838;2023-08-17T02:45:55;2.40;;;1.52;;
21305;SDS011;10812;51.838;5.838;2023-08-17T02:48:27;3.17;;;1.70;;
21305;SDS011;10812;51.838;5.838;2023-08-17T02:50:58;2.80;;;1.73;;
21305;SDS011;10812;51.838;5.838;2023-08-17T02:53:26;3.00;;;1.55;;
21305;SDS011;10812;51.838;5.838;2023-08-17T02:55:54;5.63;;;1.88;;
21305;SDS011;10812;51.838;5.838;2023-08-17T02:58:22;2.83;;;1.90;;
21305;SDS011;10812;51.838;5.838;2023-08-17T03:06:09;2.83;;;1.67;;
21305;SDS011;10812;51.838;5.838;2023-08-17T03:08:37;3.30;;;1.70;;
21305;SDS011;10812;51.838;5.838;2023-08-17T03:11:05;2.83;;;1.60;;
21305;SDS011;10812;51.838;5.838;2023-08-17T03:13:36;3.95;;;1.95;;
21305;SDS011;10812;51.838;5.838;2023-08-17T03:16:04;2.17;;;1.40;;
21305;SDS011;10812;51.838;5.838;2023-08-17T03:18:32;4.85;;;1.80;;
21305;SDS011;10812;51.838;5.838;2023-08-17T03:21:00;2.53;;;1.98;;
21305;SDS011;10812;51.838;5.838;2023-08-17T03:23:29;6.90;;;1.98;;
21305;SDS011;10812;51.838;5.838;2023-08-17T03:25:57;3.05;;;1.70;;
21305;SDS011;10812;51.838;5.838;2023-08-17T03:28:26;6.55;;;1.90;;
21305;SDS011;10812;51.838;5.838;2023-08-17T03:30:55;2.70;;;1.90;;
21305;SDS011;10812;51.838;5.838;2023-08-17T03:33:23;3.75;;;2.10;;
21305;SDS011;10812;51.838;5.838;2023-08-17T03:35:51;2.70;;;1.90;;
21305;SDS011;10812;51.838;5.838;2023-08-17T03:38:19;3.50;;;2.05;;
21305;SDS011;10812;51.838;5.838;2023-08-17T03:40:49;6.78;;;2.15;;
21305;SDS011;10812;51.838;5.838;2023-08-17T03:43:17;2.58;;;1.85;;
21305;SDS011;10812;51.838;5.838;2023-08-17T03:45:45;5.40;;;2.20;;
21305;SDS011;10812;51.838;5.838;2023-08-17T03:48:13;4.43;;;2.15;;
21305;SDS011;10812;51.838;5.838;2023-08-17T03:50:41;4.77;;;2.20;;
21305;SDS011;10812;51.838;5.838;2023-08-17T03:53:09;2.90;;;2.03;;
21305;SDS011;10812;51.838;5.838;2023-08-17T03:55:37;4.43;;;2.17;;
21305;SDS011;10812;51.838;5.838;2023-08-17T03:58:06;4.80;;;2.47;;
21305;SDS011;10812;51.838;5.838;2023-08-17T04:00:34;4.93;;;2.30;;
21305;SDS011;10812;51.838;5.838;2023-08-17T04:03:03;4.97;;;2.40;;
21305;SDS011;10812;51.838;5.838;2023-08-17T04:05:31;2.77;;;2.13;;
21305;SDS011;10812;51.838;5.838;2023-08-17T04:08:00;3.95;;;2.00;;
21305;SDS011;10812;51.838;5.838;2023-08-17T04:10:29;2.27;;;2.00;;
21305;SDS011;10812;51.838;5.838;2023-08-17T04:12:57;4.77;;;2.27;;
21305;SDS011;10812;51.838;5.838;2023-08-17T04:15:26;3.22;;;2.00;;
21305;SDS011;10812;51.838;5.838;2023-08-17T04:17:54;2.40;;;1.92;;
21305;SDS011;10812;51.838;5.838;2023-08-17T04:20:22;5.55;;;2.47;;
21305;SDS011;10812;51.838;5.838;2023-08-17T04:22:52;6.82;;;2.83;;
21305;SDS011;10812;51.838;5.838;2023-08-17T04:25:20;6.03;;;2.30;;
21305;SDS011;10812;51.838;5.838;2023-08-17T04:27:49;7.15;;;2.25;;
21305;SDS011;10812;51.838;5.838;2023-08-17T04:30:17;3.80;;;2.53;;
21305;SDS011;10812;51.838;5.838;2023-08-17T04:32:46;5.38;;;2.45;;
21305;SDS011;10812;51.838;5.838;2023-08-17T04:35:18;8.57;;;2.57;;
21305;SDS011;10812;51.838;5.838;2023-08-17T04:37:47;3.87;;;2.30;;
21305;SDS011;10812;51.838;5.838;2023-08-17T04:40:15;5.20;;;2.70;;
21305;SDS011;10812;51.838;5.838;2023-08-17T04:42:44;5.10;;;2.80;;
21305;SDS011;10812;51.838;5.838;2023-08-17T04:45:12;4.90;;;2.60;;
21305;SDS011;10812;51.838;5.838;2023-08-17T04:47:40;3.70;;;2.67;;
21305;SDS011;10812;51.838;5.838;2023-08-17T04:50:09;7.72;;;2.50;;
21305;SDS011;10812;51.838;5.838;2023-08-17T04:52:42;2.83;;;2.63;;
21305;SDS011;10812;51.838;5.838;2023-08-17T04:55:10;3.60;;;2.13;;
21305;SDS011;10812;51.838;5.838;2023-08-17T04:57:39;7.97;;;2.43;;
21305;SDS011;10812;51.838;5.838;2023-08-17T05:00:07;4.70;;;2.50;;
21305;SDS011;10812;51.838;5.838;2023-08-17T05:02:57;2.17;;;1.77;;
21305;SDS011;10812;51.838;5.838;2023-08-17T05:05:26;5.88;;;2.30;;
21305;SDS011;10812;51.838;5.838;2023-08-17T05:07:54;3.65;;;2.20;;
21305;SDS011;10812;51.838;5.838;2023-08-17T05:10:22;7.03;;;3.13;;
21305;SDS011;10812;51.838;5.838;2023-08-17T05:12:51;9.17;;;2.80;;
21305;SDS011;10812;51.838;5.838;2023-08-17T05:15:19;5.17;;;2.00;;
21305;SDS011;10812;51.838;5.838;2023-08-17T05:17:47;6.55;;;2.35;;
21305;SDS011;10812;51.838;5.838;2023-08-17T05:20:15;6.03;;;2.42;;
21305;SDS011;10812;51.838;5.838;2023-08-17T05:22:44;6.82;;;2.40;;
21305;SDS011;10812;51.838;5.838;2023-08-17T05:25:12;8.05;;;2.70;;
21305;SDS011;10812;51.838;5.838;2023-08-17T05:27:40;6.65;;;2.70;;
21305;SDS011;10812;51.838;5.838;2023-08-17T05:30:08;3.95;;;2.50;;
21305;SDS011;10812;51.838;5.838;2023-08-17T05:32:37;9.63;;;2.85;;
21305;SDS011;10812;51.838;5.838;2023-08-17T05:35:07;4.38;;;2.33;;
21305;SDS011;10812;51.838;5.838;2023-08-17T05:37:35;4.18;;;2.80;;
21305;SDS011;10812;51.838;5.838;2023-08-17T05:40:05;7.43;;;3.00;;
21305;SDS011;10812;51.838;5.838;2023-08-17T05:42:35;5.45;;;2.20;;
21305;SDS011;10812;51.838;5.838;2023-08-17T05:45:03;4.57;;;2.37;;
21305;SDS011;10812;51.838;5.838;2023-08-17T05:47:32;3.92;;;2.03;;
21305;SDS011;10812;51.838;5.838;2023-08-17T05:50:00;4.15;;;2.22;;
21305;SDS011;10812;51.838;5.838;2023-08-17T05:52:28;4.82;;;2.42;;
21305;SDS011;10812;51.838;5.838;2023-08-17T05:54:56;4.95;;;2.10;;
21305;SDS011;10812;51.838;5.838;2023-08-17T05:57:25;4.55;;;2.30;;
21305;SDS011;10812;51.838;5.838;2023-08-17T05:59:54;4.75;;;2.28;;
21305;SDS011;10812;51.838;5.838;2023-08-17T06:02:22;4.30;;;2.30;;
21305;SDS011;10812;51.838;5.838;2023-08-17T06:04:50;4.78;;;2.10;;
21305;SDS011;10812;51.838;5.838;2023-08-17T06:07:18;3.05;;;2.10;;
21305;SDS011;10812;51.838;5.838;2023-08-17T06:09:46;6.72;;;2.42;;
21305;SDS011;10812;51.838;5.838;2023-08-17T06:12:15;5.90;;;2.78;;
21305;SDS011;10812;51.838;5.838;2023-08-17T06:14:46;4.97;;;2.20;;
21305;SDS011;10812;51.838;5.838;2023-08-17T06:17:14;7.25;;;2.08;;
21305;SDS011;10812;51.838;5.838;2023-08-17T06:19:42;2.78;;;2.35;;
21305;SDS011;10812;51.838;5.838;2023-08-17T06:22:10;4.07;;;2.30;;
21305;SDS011;10812;51.838;5.838;2023-08-17T06:24:38;3.42;;;2.22;;
21305;SDS011;10812;51.838;5.838;2023-08-17T06:27:06;4.93;;;2.03;;
21305;SDS011;10812;51.838;5.838;2023-08-17T06:29:34;5.55;;;2.10;;
21305;SDS011;10812;51.838;5.838;2023-08-17T06:32:04;7.00;;;2.17;;
21305;SDS011;10812;51.838;5.838;2023-08-17T06:34:33;6.85;;;2.72;;
21305;SDS011;10812;51.838;5.838;2023-08-17T06:37:03;4.32;;;2.25;;
21305;SDS011;10812;51.838;5.838;2023-08-17T06:39:31;4.03;;;1.65;;
21305;SDS011;10812;51.838;5.838;2023-08-17T06:42:00;2.28;;;1.60;;
21305;SDS011;10812;51.838;5.838;2023-08-17T06:44:28;2.92;;;2.03;;
21305;SDS011;10812;51.838;5.838;2023-08-17T06:46:57;6.40;;;1.95;;
21305;SDS011;10812;51.838;5.838;2023-08-17T06:49:26;6.72;;;3.13;;
21305;SDS011;10812;51.838;5.838;2023-08-17T06:51:54;4.93;;;2.22;;
21305;SDS011;10812;51.838;5.838;2023-08-17T06:54:22;4.28;;;2.10;;
21305;SDS011;10812;51.838;5.838;2023-08-17T06:56:51;3.88;;;1.90;;
21305;SDS011;10812;51.838;5.838;2023-08-17T06:59:19;3.50;;;2.10;;
21305;SDS011;10812;51.838;5.838;2023-08-17T07:01:47;4.78;;;2.00;;
21305;SDS011;10812;51.838;5.838;2023-08-17T07:04:15;6.18;;;1.88;;
21305;SDS011;10812;51.838;5.838;2023-08-17T07:06:45;3.03;;;1.83;;
21305;SDS011;10812;51.838;5.838;2023-08-17T07:09:13;6.28;;;2.10;;
21305;SDS011;10812;51.838;5.838;2023-08-17T07:11:41;3.03;;;2.03;;
21305;SDS011;10812;51.838;5.838;2023-08-17T07:14:09;4.50;;;2.30;;
21305;SDS011;10812;51.838;5.838;2023-08-17T07:16:38;5.10;;;1.90;;
21305;SDS011;10812;51.838;5.838;2023-08-17T07:19:06;3.65;;;1.70;;
21305;SDS011;10812;51.838;5.838;2023-08-17T07:21:34;5.15;;;1.60;;
21305;SDS011;10812;51.838;5.838;2023-08-17T07:24:12;3.83;;;1.58;;
21305;SDS011;10812;51.838;5.838;2023-08-17T07:26:41;2.60;;;1.95;;
21305;SDS011;10812;51.838;5.838;2023-08-17T07:29:09;4.47;;;2.40;;
21305;SDS011;10812;51.838;5.838;2023-08-17T07:31:38;2.58;;;2.13;;
21305;SDS011;10812;51.838;5.838;2023-08-17T07:34:09;5.80;;;2.40;;
21305;SDS011;10812;51.838;5.838;2023-08-17T07:36:37;2.83;;;2.35;;
21305;SDS011;10812;51.838;5.838;2023-08-17T07:39:05;4.90;;;3.08;;
21305;SDS011;10812;51.838;5.838;2023-08-17T07:41:35;3.67;;;2.20;;
21305;SDS011;10812;51.838;5.838;2023-08-17T07:44:03;3.47;;;2.67;;
21305;SDS011;10812;51.838;5.838;2023-08-17T07:46:32;3.75;;;2.20;;
21305;SDS011;10812;51.838;5.838;2023-08-17T07:49:00;3.97;;;2.17;;
21305;SDS011;10812;51.838;5.838;2023-08-17T07:51:28;7.03;;;2.08;;
21305;SDS011;10812;51.838;5.838;2023-08-17T07:53:57;4.53;;;2.00;;
21305;SDS011;10812;51.838;5.838;2023-08-17T07:56:26;8.82;;;2.55;;
21305;SDS011;10812;51.838;5.838;2023-08-17T07:58:56;5.63;;;2.40;;
21305;SDS011;10812;51.838;5.838;2023-08-17T08:01:24;3.03;;;1.95;;
21305;SDS011;10812;51.838;5.838;2023-08-17T08:03:53;3.45;;;2.10;;
21305;SDS011;10812;51.838;5.838;2023-08-17T08:06:21;4.15;;;2.30;;
21305;SDS011;10812;51.838;5.838;2023-08-17T08:08:49;3.65;;;2.22;;
21305;SDS011;10812;51.838;5.838;2023-08-17T08:11:17;2.50;;;2.30;;
21305;SDS011;10812;51.838;5.838;2023-08-17T08:13:45;3.00;;;1.95;;
21305;SDS011;10812;51.838;5.838;2023-08-17T08:16:14;4.30;;;2.70;;
21305;SDS011;10812;51.838;5.838;2023-08-17T08:18:43;7.43;;;2.47;;
21305;SDS011;10812;51.838;5.838;2023-08-17T08:21:11;3.42;;;2.10;;
21305;SDS011;10812;51.838;5.838;2023-08-17T08:23:39;5.35;;;2.67;;
21305;SDS011;10812;51.838;5.838;2023-08-17T08:26:07;3.25;;;2.40;;
21305;SDS011;10812;51.838;5.838;2023-08-17T08:28:35;4.45;;;2.35;;
21305;SDS011;10812;51.838;5.838;2023-08-17T08:31:03;6.80;;;3.58;;
21305;SDS011;10812;51.838;5.838;2023-08-17T08:33:32;3.25;;;2.47;;
21305;SDS011;10812;51.838;5.838;2023-08-17T08:36:00;6.65;;;3.00;;
21305;SDS011;10812;51.838;5.838;2023-08-17T08:38:29;3.83;;;2.13;;
21305;SDS011;10812;51.838;5.838;2023-08-17T08:40:57;4.38;;;2.70;;
21305;SDS011;10812;51.838;5.838;2023-08-17T08:43:26;3.40;;;2.45;;
21305;SDS011;10812;51.838;5.838;2023-08-17T08:45:54;3.97;;;2.40;;
21305;SDS011;10812;51.838;5.838;2023-08-17T08:48:22;5.82;;;3.05;;
21305;SDS011;10812;51.838;5.838;2023-08-17T08:50:55;4.90;;;2.30;;
21305;SDS011;10812;51.838;5.838;2023-08-17T08:53:28;4.50;;;2.47;;
21305;SDS011;10812;51.838;5.838;2023-08-17T08:56:02;4.40;;;2.63;;
21305;SDS011;10812;51.838;5.838;2023-08-17T08:58:31;5.30;;;3.00;;
21305;SDS011;10812;51.838;5.838;2023-08-17T09:01:02;5.60;;;3.20;;
21305;SDS011;10812;51.838;5.838;2023-08-17T09:03:34;5.72;;;2.83;;
21305;SDS011;10812;51.838;5.838;2023-08-17T09:06:05;5.70;;;3.10;;
21305;SDS011;10812;51.838;5.838;2023-08-17T09:08:33;8.23;;;2.83;;
21305;SDS011;10812;51.838;5.838;2023-08-17T09:11:01;4.15;;;2.80;;
21305;SDS011;10812;51.838;5.838;2023-08-17T09:13:29;4.32;;;3.13;;
21305;SDS011;10812;51.838;5.838;2023-08-17T09:15:58;4.50;;;2.85;;
21305;SDS011;10812;51.838;5.838;2023-08-17T09:18:33;5.45;;;3.50;;
21305;SDS011;10812;51.838;5.838;2023-08-17T09:21:06;7.38;;;3.63;;
21305;SDS011;10812;51.838;5.838;2023-08-17T09:23:34;6.97;;;3.05;;
21305;SDS011;10812;51.838;5.838;2023-08-17T09:26:05;4.25;;;3.28;;
21305;SDS011;10812;51.838;5.838;2023-08-17T09:28:38;6.57;;;3.33;;
21305;SDS011;10812;51.838;5.838;2023-08-17T09:31:07;6.38;;;3.33;;
21305;SDS011;10812;51.838;5.838;2023-08-17T09:33:35;8.02;;;3.60;;
21305;SDS011;10812;51.838;5.838;2023-08-17T09:36:03;7.13;;;3.60;;
21305;SDS011;10812;51.838;5.838;2023-08-17T09:38:33;3.90;;;3.15;;
21305;SDS011;10812;51.838;5.838;2023-08-17T09:41:01;5.88;;;3.80;;
21305;SDS011;10812;51.838;5.838;2023-08-17T09:43:29;3.97;;;3.15;;
21305;SDS011;10812;51.838;5.838;2023-08-17T09:46:00;7.25;;;3.85;;
21305;SDS011;10812;51.838;5.838;2023-08-17T09:48:29;4.90;;;3.78;;
21305;SDS011;10812;51.838;5.838;2023-08-17T09:50:59;11.00;;;3.75;;
21305;SDS011;10812;51.838;5.838;2023-08-17T09:53:33;5.20;;;3.53;;
21305;SDS011;10812;51.838;5.838;2023-08-17T09:56:04;6.47;;;3.65;;
21305;SDS011;10812;51.838;5.838;2023-08-17T09:58:33;10.35;;;4.38;;
21305;SDS011;10812;51.838;5.838;2023-08-17T10:01:02;5.00;;;3.63;;
21305;SDS011;10812;51.838;5.838;2023-08-17T10:03:32;8.05;;;3.53;;
21305;SDS011;10812;51.838;5.838;2023-08-17T10:06:04;5.47;;;3.70;;
21305;SDS011;10812;51.838;5.838;2023-08-17T10:08:35;4.65;;;4.05;;
21305;SDS011;10812;51.838;5.838;2023-08-17T10:11:09;5.93;;;3.47;;
21305;SDS011;10812;51.838;5.838;2023-08-17T10:13:40;9.73;;;4.15;;
21305;SDS011;10812;51.838;5.838;2023-08-17T10:16:11;6.35;;;3.85;;
21305;SDS011;10812;51.838;5.838;2023-08-17T10:18:49;8.48;;;4.75;;
21305;SDS011;10812;51.838;5.838;2023-08-17T10:21:23;6.97;;;4.32;;
21305;SDS011;10812;51.838;5.838;2023-08-17T10:23:56;6.15;;;3.65;;
21305;SDS011;10812;51.838;5.838;2023-08-17T10:26:25;5.97;;;4.22;;
21305;SDS011;10812;51.838;5.838;2023-08-17T10:29:12;7.32;;;4.32;;
21305;SDS011;10812;51.838;5.838;2023-08-17T10:31:43;6.95;;;4.32;;
21305;SDS011;10812;51.838;5.838;2023-08-17T10:34:12;10.40;;;4.95;;
21305;SDS011;10812;51.838;5.838;2023-08-17T10:36:41;6.13;;;4.72;;
21305;SDS011;10812;51.838;5.838;2023-08-17T10:39:23;8.10;;;4.88;;
21305;SDS011;10812;51.838;5.838;2023-08-17T10:41:55;8.45;;;4.90;;
21305;SDS011;10812;51.838;5.838;2023-08-17T10:47:21;7.50;;;5.15;;
21305;SDS011;10812;51.838;5.838;2023-08-17T10:49:50;8.50;;;5.63;;
21305;SDS011;10812;51.838;5.838;2023-08-17T10:52:24;7.13;;;4.88;;
21305;SDS011;10812;51.838;5.838;2023-08-17T10:54:55;7.55;;;5.43;;
21305;SDS011;10812;51.838;5.838;2023-08-17T10:57:31;9.90;;;5.70;;
21305;SDS011;10812;51.838;5.838;2023-08-17T11:00:15;7.90;;;5.75;;
21305;SDS011;10812;51.838;5.838;2023-08-17T11:02:54;8.63;;;5.90;;
21305;SDS011;10812;51.838;5.838;2023-08-17T11:08:19;11.48;;;6.07;;
21305;SDS011;10812;51.838;5.838;2023-08-17T11:10:56;9.48;;;6.07;;
21305;SDS011;10812;51.838;5.838;2023-08-17T11:13:29;9.20;;;6.15;;
21305;SDS011;10812;51.838;5.838;2023-08-17T11:15:59;11.70;;;6.60;;
21305;SDS011;10812;51.838;5.838;2023-08-17T11:18:30;6.35;;;4.72;;
21305;SDS011;10812;51.838;5.838;2023-08-17T11:20:59;9.23;;;5.72;;
21305;SDS011;10812;51.838;5.838;2023-08-17T11:23:28;10.43;;;5.55;;
21305;SDS011;10812;51.838;5.838;2023-08-17T11:25:59;10.38;;;5.60;;
21305;SDS011;10812;51.838;5.838;2023-08-17T11:28:29;10.70;;;5.18;;
21305;SDS011;10812;51.838;5.838;2023-08-17T11:31:00;10.27;;;5.70;;
21305;SDS011;10812;51.838;5.838;2023-08-17T11:33:30;10.07;;;5.43;;
21305;SDS011;10812;51.838;5.838;2023-08-17T11:35:59;8.23;;;5.18;;
21305;SDS011;10812;51.838;5.838;2023-08-17T11:38:30;8.25;;;5.88;;
21305;SDS011;10812;51.838;5.838;2023-08-17T11:41:00;8.20;;;4.50;;
21305;SDS011;10812;51.838;5.838;2023-08-17T11:43:31;6.55;;;4.72;;
21305;SDS011;10812;51.838;5.838;2023-08-17T11:46:00;8.35;;;5.45;;
21305;SDS011;10812;51.838;5.838;2023-08-17T11:48:30;9.40;;;6.30;;
21305;SDS011;10812;51.838;5.838;2023-08-17T11:51:01;8.40;;;5.43;;
21305;SDS011;10812;51.838;5.838;2023-08-17T11:53:33;10.57;;;6.47;;
21305;SDS011;10812;51.838;5.838;2023-08-17T11:56:03;7.65;;;6.30;;
21305;SDS011;10812;51.838;5.838;2023-08-17T11:58:36;13.93;;;6.15;;
21305;SDS011;10812;51.838;5.838;2023-08-17T12:01:10;9.07;;;6.10;;
21305;SDS011;10812;51.838;5.838;2023-08-17T12:03:40;10.25;;;5.40;;
21305;SDS011;10812;51.838;5.838;2023-08-17T12:06:09;7.53;;;6.25;;
21305;SDS011;10812;51.838;5.838;2023-08-17T12:08:41;9.77;;;5.40;;
21305;SDS011;10812;51.838;5.838;2023-08-17T12:11:14;10.75;;;5.60;;
21305;SDS011;10812;51.838;5.838;2023-08-17T12:13:43;8.55;;;6.10;;
21305;SDS011;10812;51.838;5.838;2023-08-17T12:16:16;11.27;;;6.53;;
21305;SDS011;10812;51.838;5.838;2023-08-17T12:18:45;8.88;;;6.28;;
21305;SDS011;10812;51.838;5.838;2023-08-17T12:21:15;9.80;;;5.93;;
21305;SDS011;10812;51.838;5.838;2023-08-17T12:23:43;9.02;;;5.93;;
21305;SDS011;10812;51.838;5.838;2023-08-17T12:26:19;8.93;;;6.00;;
21305;SDS011;10812;51.838;5.838;2023-08-17T12:28:48;8.65;;;6.20;;
21305;SDS011;10812;51.838;5.838;2023-08-17T12:31:20;9.43;;;7.50;;
21305;SDS011;10812;51.838;5.838;2023-08-17T12:33:49;7.07;;;5.63;;
21305;SDS011;10812;51.838;5.838;2023-08-17T12:36:17;11.13;;;6.63;;
21305;SDS011;10812;51.838;5.838;2023-08-17T12:38:47;8.57;;;5.43;;
21305;SDS011;10812;51.838;5.838;2023-08-17T12:41:16;11.20;;;7.07;;
21305;SDS011;10812;51.838;5.838;2023-08-17T12:43:46;8.77;;;6.43;;
21305;SDS011;10812;51.838;5.838;2023-08-17T12:46:14;10.05;;;6.60;;
21305;SDS011;10812;51.838;5.838;2023-08-17T12:48:44;8.32;;;6.57;;
21305;SDS011;10812;51.838;5.838;2023-08-17T12:51:12;9.27;;;6.30;;
21305;SDS011;10812;51.838;5.838;2023-08-17T12:53:40;10.10;;;6.60;;
21305;SDS011;10812;51.838;5.838;2023-08-17T12:56:15;8.80;;;6.50;;
21305;SDS011;10812;51.838;5.838;2023-08-17T12:58:43;8.15;;;6.28;;
21305;SDS011;10812;51.838;5.838;2023-08-17T13:01:13;9.13;;;7.82;;
21305;SDS011;10812;51.838;5.838;2023-08-17T13:03:41;9.60;;;7.90;;
21305;SDS011;10812;51.838;5.838;2023-08-17T13:06:09;9.20;;;7.03;;
21305;SDS011;10812;51.838;5.838;2023-08-17T13:08:37;9.95;;;8.10;;
21305;SDS011;10812;51.838;5.838;2023-08-17T13:11:05;10.23;;;8.38;;
21305;SDS011;10812;51.838;5.838;2023-08-17T13:13:33;12.93;;;8.40;;
21305;SDS011;10812;51.838;5.838;2023-08-17T13:16:03;9.23;;;7.75;;
21305;SDS011;10812;51.838;5.838;2023-08-17T13:18:32;10.75;;;8.65;;
21305;SDS011;10812;51.838;5.838;2023-08-17T13:21:00;10.88;;;8.05;;
21305;SDS011;10812;51.838;5.838;2023-08-17T13:23:28;9.52;;;8.55;;
21305;SDS011;10812;51.838;5.838;2023-08-17T13:25:56;11.05;;;8.52;;
21305;SDS011;10812;51.838;5.838;2023-08-17T13:28:24;11.32;;;9.35;;
21305;SDS011;10812;51.838;5.838;2023-08-17T13:30:52;11.82;;;8.50;;
21305;SDS011;10812;51.838;5.838;2023-08-17T13:33:22;11.32;;;9.55;;
21305;SDS011;10812;51.838;5.838;2023-08-17T13:35:50;11.20;;;9.48;;
21305;SDS011;10812;51.838;5.838;2023-08-17T13:38:18;9.98;;;8.93;;
21305;SDS011;10812;51.838;5.838;2023-08-17T13:40:46;16.48;;;10.90;;
21305;SDS011;10812;51.838;5.838;2023-08-17T13:43:14;10.00;;;8.77;;
21305;SDS011;10812;51.838;5.838;2023-08-17T13:45:42;13.50;;;9.43;;
21305;SDS011;10812;51.838;5.838;2023-08-17T13:48:10;11.98;;;9.38;;
21305;SDS011;10812;51.838;5.838;2023-08-17T13:50:40;9.18;;;8.10;;
21305;SDS011;10812;51.838;5.838;2023-08-17T13:53:08;11.77;;;9.50;;
21305;SDS011;10812;51.838;5.838;2023-08-17T13:55:36;12.27;;;8.68;;
21305;SDS011;10812;51.838;5.838;2023-08-17T13:58:04;10.50;;;9.40;;
21305;SDS011;10812;51.838;5.838;2023-08-17T14:00:32;11.05;;;9.27;;
21305;SDS011;10812;51.838;5.838;2023-08-17T14:03:00;11.30;;;9.00;;
21305;SDS011;10812;51.838;5.838;2023-08-17T14:05:29;11.65;;;8.70;;
21305;SDS011;10812;51.838;5.838;2023-08-17T14:07:58;11.18;;;9.13;;
21305;SDS011;10812;51.838;5.838;2023-08-17T14:10:27;10.48;;;8.70;;
21305;SDS011;10812;51.838;5.838;2023-08-17T14:13:05;13.90;;;9.18;;
21305;SDS011;10812;51.838;5.838;2023-08-17T14:15:33;12.15;;;9.43;;
21305;SDS011;10812;51.838;5.838;2023-08-17T14:18:02;10.30;;;8.85;;
21305;SDS011;10812;51.838;5.838;2023-08-17T14:20:30;11.50;;;9.35;;
21305;SDS011;10812;51.838;5.838;2023-08-17T14:22:59;12.02;;;9.73;;
21305;SDS011;10812;51.838;5.838;2023-08-17T14:25:27;11.02;;;9.20;;
21305;SDS011;10812;51.838;5.838;2023-08-17T14:27:57;11.23;;;9.57;;
21305;SDS011;10812;51.838;5.838;2023-08-17T14:30:26;11.50;;;9.77;;
21305;SDS011;10812;51.838;5.838;2023-08-17T14:32:54;10.93;;;9.82;;
21305;SDS011;10812;51.838;5.838;2023-08-17T14:35:26;11.70;;;10.27;;
21305;SDS011;10812;51.838;5.838;2023-08-17T14:37:54;12.27;;;9.85;;
21305;SDS011;10812;51.838;5.838;2023-08-17T14:40:26;12.27;;;10.65;;
21305;SDS011;10812;51.838;5.838;2023-08-17T14:42:54;13.55;;;11.00;;
21305;SDS011;10812;51.838;5.838;2023-08-17T14:45:23;12.32;;;9.60;;
21305;SDS011;10812;51.838;5.838;2023-08-17T14:47:51;12.93;;;10.20;;
21305;SDS011;10812;51.838;5.838;2023-08-17T14:50:19;9.93;;;8.90;;
21305;SDS011;10812;51.838;5.838;2023-08-17T14:52:54;11.55;;;9.93;;
21305;SDS011;10812;51.838;5.838;2023-08-17T14:55:22;10.30;;;9.30;;
21305;SDS011;10812;51.838;5.838;2023-08-17T14:57:52;9.88;;;8.98;;
21305;SDS011;10812;51.838;5.838;2023-08-17T15:00:20;9.75;;;8.63;;
21305;SDS011;10812;51.838;5.838;2023-08-17T15:02:48;11.75;;;8.40;;
21305;SDS011;10812;51.838;5.838;2023-08-17T15:05:16;12.07;;;8.63;;
21305;SDS011;10812;51.838;5.838;2023-08-17T15:07:45;11.45;;;9.70;;
21305;SDS011;10812;51.838;5.838;2023-08-17T15:10:13;11.55;;;9.40;;
21305;SDS011;10812;51.838;5.838;2023-08-17T15:12:41;11.90;;;9.15;;
21305;SDS011;10812;51.838;5.838;2023-08-17T15:15:11;11.45;;;10.10;;
21305;SDS011;10812;51.838;5.838;2023-08-17T15:17:39;13.35;;;9.20;;